sensor_id;sensor_type;location;lat;lon;timestamp;P1;durP1;ratioP1;P2;durP2;ratioP2
37787;SDS011;23627;53.302;-6.362;2023-07-31T00:01:18;3.47;;;1.23;;
37787;SDS011;23627;53.302;-6.362;2023-07-31T00:03:47;1.77;;;1.00;;
37787;SDS011;23627;53.302;-6.362;2023-07-31T00:06:38;1.85;;;0.90;;
37787;SDS011;23627;53.302;-6.362;2023-07-31T00:14:55;1.35;;;0.90;;
37787;SDS011;23627;53.302;-6.362;2023-07-31T00:17:21;2.38;;;0.90;;
37787;SDS011;23627;53.302;-6.362;2023-07-31T00:19:47;1.55;;;1.02;;
37787;SDS011;23627;53.302;-6.362;2023-07-31T00:22:22;2.97;;;1.00;;
37787;SDS011;23627;53.302;-6.362;2023-07-31T00:25:08;2.42;;;0.90;;
37787;SDS011;23627;53.302;-6.362;2023-07-31T00:27:35;2.72;;;1.05;;
37787;SDS011;23627;53.302;-6.362;2023-07-31T00:30:01;2.22;;;0.93;;
37787;SDS011;23627;53.302;-6.362;2023-07-31T00:32:28;2.10;;;0.82;;
37787;SDS011;23627;53.302;-6.362;2023-07-31T00:34:55;2.45;;;1.10;;
37787;SDS011;23627;53.302;-6.362;2023-07-31T00:37:28;4.72;;;1.08;;
37787;SDS011;23627;53.302;-6.362;2023-07-31T00:39:54;2.10;;;0.80;;
37787;SDS011;23627;53.302;-6.362;2023-07-31T00:42:19;1.15;;;0.80;;
37787;SDS011;23627;53.302;-6.362;2023-07-31T00:44:45;3.17;;;1.05;;
37787;SDS011;23627;53.302;-6.362;2023-07-31T00:47:11;2.75;;;1.20;;
37787;SDS011;23627;53.302;-6.362;2023-07-31T00:49:37;2.10;;;1.05;;
37787;SDS011;23627;53.302;-6.362;2023-07-31T00:52:08;1.38;;;0.70;;
37787;SDS011;23627;53.302;-6.362;2023-07-31T00:54:35;2.85;;;1.30;;
37787;SDS011;23627;53.302;-6.362;2023-07-31T00:57:03;2.85;;;0.90;;
37787;SDS011;23627;53.302;-6.362;2023-07-31T00:59:36;1.63;;;0.88;;
37787;SDS011;23627;53.302;-6.362;2023-07-31T01:02:04;2.55;;;0.90;;
37787;SDS011;23627;53.302;-6.362;2023-07-31T01:04:30;1.55;;;0.80;;
37787;SDS011;23627;53.302;-6.362;2023-07-31T01:09:32;1.67;;;0.80;;
37787;SDS011;23627;53.302;-6.362;2023-07-31T01:12:21;2.17;;;0.67;;
37787;SDS011;23627;53.302;-6.362;2023-07-31T01:15:01;1.75;;;0.85;;
37787;SDS011;23627;53.302;-6.362;2023-07-31T01:17:31;1.50;;;0.60;;
37787;SDS011;23627;53.302;-6.362;2023-07-31T01:19:59;1.67;;;0.57;;
37787;SDS011;23627;53.302;-6.362;2023-07-31T01:28:29;1.60;;;0.63;;
37787;SDS011;23627;53.302;-6.362;2023-07-31T01:31:09;1.25;;;0.70;;
37787;SDS011;23627;53.302;-6.362;2023-07-31T01:33:38;1.52;;;0.70;;
37787;SDS011;23627;53.302;-6.362;2023-07-31T01:36:05;1.88;;;0.70;;
37787;SDS011;23627;53.302;-6.362;2023-07-31T01:38:31;2.15;;;0.70;;
37787;SDS011;23627;53.302;-6.362;2023-07-31T01:40:57;1.65;;;0.75;;
37787;SDS011;23627;53.302;-6.362;2023-07-31T01:43:22;1.75;;;0.60;;
37787;SDS011;23627;53.302;-6.362;2023-07-31T01:45:49;1.80;;;0.70;;
37787;SDS011;23627;53.302;-6.362;2023-07-31T01:48:15;2.65;;;0.70;;
37787;SDS011;23627;53.302;-6.362;2023-07-31T01:50:40;2.35;;;0.80;;
37787;SDS011;23627;53.302;-6.362;2023-07-31T01:53:06;1.83;;;0.85;;
37787;SDS011;23627;53.302;-6.362;2023-07-31T01:55:32;2.15;;;0.70;;
37787;SDS011;23627;53.302;-6.362;2023-07-31T01:57:58;0.75;;;0.40;;
37787;SDS011;23627;53.302;-6.362;2023-07-31T02:00:24;1.67;;;0.70;;
37787;SDS011;23627;53.302;-6.362;2023-07-31T02:02:49;1.77;;;0.70;;
37787;SDS011;23627;53.302;-6.362;2023-07-31T02:05:15;2.25;;;0.80;;
37787;SDS011;23627;53.302;-6.362;2023-07-31T02:07:41;1.70;;;0.70;;
37787;SDS011;23627;53.302;-6.362;2023-07-31T02:10:10;1.55;;;0.55;;
37787;SDS011;23627;53.302;-6.362;2023-07-31T02:12:36;1.15;;;0.70;;
37787;SDS011;23627;53.302;-6.362;2023-07-31T02:15:02;1.80;;;0.85;;
37787;SDS011;23627;53.302;-6.362;2023-07-31T02:17:28;1.75;;;0.70;;
37787;SDS011;23627;53.302;-6.362;2023-07-31T02:19:54;1.52;;;0.80;;
37787;SDS011;23627;53.302;-6.362;2023-07-31T02:22:20;2.05;;;0.70;;
37787;SDS011;23627;53.302;-6.362;2023-07-31T02:24:46;1.02;;;0.60;;
37787;SDS011;23627;53.302;-6.362;2023-07-31T02:27:12;1.55;;;0.60;;
37787;SDS011;23627;53.302;-6.362;2023-07-31T02:29:38;2.13;;;0.90;;
37787;SDS011;23627;53.302;-6.362;2023-07-31T02:32:03;0.90;;;0.63;;
37787;SDS011;23627;53.302;-6.362;2023-07-31T02:34:29;1.92;;;0.65;;
37787;SDS011;23627;53.302;-6.362;2023-07-31T02:36:56;2.00;;;0.60;;
37787;SDS011;23627;53.302;-6.362;2023-07-31T02:39:21;1.45;;;0.70;;
37787;SDS011;23627;53.302;-6.362;2023-07-31T02:41:50;1.30;;;0.60;;
37787;SDS011;23627;53.302;-6.362;2023-07-31T02:44:16;1.60;;;0.63;;
37787;SDS011;23627;53.302;-6.362;2023-07-31T02:46:41;1.85;;;0.55;;
37787;SDS011;23627;53.302;-6.362;2023-07-31T02:49:07;1.25;;;0.50;;
37787;SDS011;23627;53.302;-6.362;2023-07-31T02:51:33;1.73;;;0.50;;
37787;SDS011;23627;53.302;-6.362;2023-07-31T02:53:59;0.80;;;0.47;;
37787;SDS011;23627;53.302;-6.362;2023-07-31T02:56:25;2.08;;;0.45;;
37787;SDS011;23627;53.302;-6.362;2023-07-31T02:58:50;1.55;;;0.40;;
37787;SDS011;23627;53.302;-6.362;2023-07-31T03:01:16;1.60;;;0.35;;
37787;SDS011;23627;53.302;-6.362;2023-07-31T03:03:42;1.25;;;0.40;;
37787;SDS011;23627;53.302;-6.362;2023-07-31T03:06:09;0.93;;;0.40;;
37787;SDS011;23627;53.302;-6.362;2023-07-31T03:08:35;1.45;;;0.40;;
37787;SDS011;23627;53.302;-6.362;2023-07-31T03:11:00;1.58;;;0.50;;
37787;SDS011;23627;53.302;-6.362;2023-07-31T03:13:26;1.17;;;0.50;;
37787;SDS011;23627;53.302;-6.362;2023-07-31T03:15:52;2.00;;;0.50;;
37787;SDS011;23627;53.302;-6.362;2023-07-31T03:18:18;0.93;;;0.30;;
37787;SDS011;23627;53.302;-6.362;2023-07-31T03:20:44;1.17;;;0.40;;
37787;SDS011;23627;53.302;-6.362;2023-07-31T03:23:09;0.63;;;0.40;;
37787;SDS011;23627;53.302;-6.362;2023-07-31T03:25:35;1.27;;;0.60;;
37787;SDS011;23627;53.302;-6.362;2023-07-31T03:28:01;3.00;;;0.40;;
37787;SDS011;23627;53.302;-6.362;2023-07-31T03:30:27;1.42;;;0.45;;
37787;SDS011;23627;53.302;-6.362;2023-07-31T03:32:56;0.95;;;0.45;;
37787;SDS011;23627;53.302;-6.362;2023-07-31T03:35:22;0.60;;;0.30;;
37787;SDS011;23627;53.302;-6.362;2023-07-31T03:37:51;0.90;;;0.50;;
37787;SDS011;23627;53.302;-6.362;2023-07-31T03:40:17;1.10;;;0.50;;
37787;SDS011;23627;53.302;-6.362;2023-07-31T03:42:43;0.98;;;0.40;;
37787;SDS011;23627;53.302;-6.362;2023-07-31T03:45:09;1.05;;;0.30;;
37787;SDS011;23627;53.302;-6.362;2023-07-31T03:47:35;1.33;;;0.40;;
37787;SDS011;23627;53.302;-6.362;2023-07-31T03:50:01;0.85;;;0.30;;
37787;SDS011;23627;53.302;-6.362;2023-07-31T03:52:26;1.05;;;0.30;;
37787;SDS011;23627;53.302;-6.362;2023-07-31T03:54:52;1.52;;;0.45;;
37787;SDS011;23627;53.302;-6.362;2023-07-31T03:57:18;0.68;;;0.30;;
37787;SDS011;23627;53.302;-6.362;2023-07-31T03:59:44;1.20;;;0.52;;
37787;SDS011;23627;53.302;-6.362;2023-07-31T04:02:09;1.13;;;0.50;;
37787;SDS011;23627;53.302;-6.362;2023-07-31T04:04:35;0.82;;;0.50;;
37787;SDS011;23627;53.302;-6.362;2023-07-31T04:07:01;0.73;;;0.30;;
37787;SDS011;23627;53.302;-6.362;2023-07-31T04:09:27;1.65;;;0.40;;
37787;SDS011;23627;53.302;-6.362;2023-07-31T04:11:52;0.93;;;0.32;;
37787;SDS011;23627;53.302;-6.362;2023-07-31T04:14:18;1.10;;;0.40;;
37787;SDS011;23627;53.302;-6.362;2023-07-31T04:16:44;1.08;;;0.38;;
37787;SDS011;23627;53.302;-6.362;2023-07-31T04:19:10;0.95;;;0.32;;
37787;SDS011;23627;53.302;-6.362;2023-07-31T04:21:38;2.28;;;0.43;;
37787;SDS011;23627;53.302;-6.362;2023-07-31T04:24:04;1.05;;;0.35;;
37787;SDS011;23627;53.302;-6.362;2023-07-31T04:26:29;1.27;;;0.30;;
37787;SDS011;23627;53.302;-6.362;2023-07-31T04:28:55;0.90;;;0.40;;
37787;SDS011;23627;53.302;-6.362;2023-07-31T04:31:21;0.50;;;0.32;;
37787;SDS011;23627;53.302;-6.362;2023-07-31T04:33:47;1.23;;;0.40;;
37787;SDS011;23627;53.302;-6.362;2023-07-31T04:36:12;0.95;;;0.28;;
37787;SDS011;23627;53.302;-6.362;2023-07-31T04:38:38;1.83;;;0.43;;
37787;SDS011;23627;53.302;-6.362;2023-07-31T04:41:06;0.52;;;0.30;;
37787;SDS011;23627;53.302;-6.362;2023-07-31T04:43:31;0.47;;;0.20;;
37787;SDS011;23627;53.302;-6.362;2023-07-31T04:45:57;0.88;;;0.28;;
37787;SDS011;23627;53.302;-6.362;2023-07-31T04:48:23;0.80;;;0.40;;
37787;SDS011;23627;53.302;-6.362;2023-07-31T04:50:49;0.73;;;0.30;;
37787;SDS011;23627;53.302;-6.362;2023-07-31T04:53:18;1.85;;;0.32;;
37787;SDS011;23627;53.302;-6.362;2023-07-31T04:55:44;1.52;;;0.50;;
37787;SDS011;23627;53.302;-6.362;2023-07-31T04:58:10;0.68;;;0.30;;
37787;SDS011;23627;53.302;-6.362;2023-07-31T05:00:35;0.95;;;0.20;;
37787;SDS011;23627;53.302;-6.362;2023-07-31T05:03:01;0.55;;;0.30;;
37787;SDS011;23627;53.302;-6.362;2023-07-31T05:05:27;0.85;;;0.30;;
37787;SDS011;23627;53.302;-6.362;2023-07-31T05:07:53;0.63;;;0.20;;
37787;SDS011;23627;53.302;-6.362;2023-07-31T05:10:19;1.25;;;0.40;;
37787;SDS011;23627;53.302;-6.362;2023-07-31T05:12:44;1.92;;;0.40;;
37787;SDS011;23627;53.302;-6.362;2023-07-31T05:15:10;1.58;;;0.50;;
37787;SDS011;23627;53.302;-6.362;2023-07-31T05:17:36;2.55;;;0.60;;
37787;SDS011;23627;53.302;-6.362;2023-07-31T05:20:02;2.72;;;0.50;;
37787;SDS011;23627;53.302;-6.362;2023-07-31T05:22:28;1.70;;;0.50;;
37787;SDS011;23627;53.302;-6.362;2023-07-31T05:24:54;1.70;;;0.60;;
37787;SDS011;23627;53.302;-6.362;2023-07-31T05:27:20;2.00;;;0.65;;
37787;SDS011;23627;53.302;-6.362;2023-07-31T05:29:47;1.80;;;0.70;;
37787;SDS011;23627;53.302;-6.362;2023-07-31T05:32:13;2.30;;;0.80;;
37787;SDS011;23627;53.302;-6.362;2023-07-31T05:34:38;1.58;;;0.70;;
37787;SDS011;23627;53.302;-6.362;2023-07-31T05:37:04;1.98;;;0.60;;
37787;SDS011;23627;53.302;-6.362;2023-07-31T05:39:31;2.13;;;0.80;;
37787;SDS011;23627;53.302;-6.362;2023-07-31T05:41:56;2.70;;;0.85;;
37787;SDS011;23627;53.302;-6.362;2023-07-31T05:44:24;1.75;;;0.70;;
37787;SDS011;23627;53.302;-6.362;2023-07-31T05:46:49;1.77;;;0.90;;
37787;SDS011;23627;53.302;-6.362;2023-07-31T05:49:17;3.15;;;1.15;;
37787;SDS011;23627;53.302;-6.362;2023-07-31T05:51:45;1.48;;;0.80;;
37787;SDS011;23627;53.302;-6.362;2023-07-31T05:54:12;3.47;;;1.10;;
37787;SDS011;23627;53.302;-6.362;2023-07-31T05:56:40;1.88;;;1.00;;
37787;SDS011;23627;53.302;-6.362;2023-07-31T05:59:08;1.73;;;1.10;;
37787;SDS011;23627;53.302;-6.362;2023-07-31T06:01:35;4.47;;;1.15;;
37787;SDS011;23627;53.302;-6.362;2023-07-31T06:04:07;4.23;;;1.20;;
37787;SDS011;23627;53.302;-6.362;2023-07-31T06:06:33;2.38;;;1.30;;
37787;SDS011;23627;53.302;-6.362;2023-07-31T06:09:06;5.00;;;1.38;;
37787;SDS011;23627;53.302;-6.362;2023-07-31T06:11:34;4.68;;;1.60;;
37787;SDS011;23627;53.302;-6.362;2023-07-31T06:14:06;4.80;;;1.40;;
37787;SDS011;23627;53.302;-6.362;2023-07-31T06:16:34;5.45;;;1.70;;
37787;SDS011;23627;53.302;-6.362;2023-07-31T06:19:00;4.28;;;1.40;;
37787;SDS011;23627;53.302;-6.362;2023-07-31T06:21:39;3.75;;;1.20;;
37787;SDS011;23627;53.302;-6.362;2023-07-31T06:24:09;4.20;;;1.52;;
37787;SDS011;23627;53.302;-6.362;2023-07-31T06:26:35;5.07;;;1.67;;
37787;SDS011;23627;53.302;-6.362;2023-07-31T06:29:01;3.85;;;1.73;;
37787;SDS011;23627;53.302;-6.362;2023-07-31T06:31:26;4.32;;;1.70;;
37787;SDS011;23627;53.302;-6.362;2023-07-31T06:33:54;5.63;;;1.90;;
37787;SDS011;23627;53.302;-6.362;2023-07-31T06:36:20;4.82;;;1.60;;
37787;SDS011;23627;53.302;-6.362;2023-07-31T06:38:47;4.78;;;2.10;;
37787;SDS011;23627;53.302;-6.362;2023-07-31T06:41:13;5.55;;;1.52;;
37787;SDS011;23627;53.302;-6.362;2023-07-31T06:43:39;3.30;;;1.70;;
37787;SDS011;23627;53.302;-6.362;2023-07-31T06:46:05;5.45;;;1.67;;
37787;SDS011;23627;53.302;-6.362;2023-07-31T06:48:33;4.15;;;1.40;;
37787;SDS011;23627;53.302;-6.362;2023-07-31T06:51:00;3.58;;;2.05;;
37787;SDS011;23627;53.302;-6.362;2023-07-31T06:53:26;4.80;;;1.80;;
37787;SDS011;23627;53.302;-6.362;2023-07-31T06:55:53;3.78;;;1.60;;
37787;SDS011;23627;53.302;-6.362;2023-07-31T06:58:19;8.70;;;2.72;;
37787;SDS011;23627;53.302;-6.362;2023-07-31T07:00:45;4.65;;;1.60;;
37787;SDS011;23627;53.302;-6.362;2023-07-31T07:03:11;5.10;;;1.92;;
37787;SDS011;23627;53.302;-6.362;2023-07-31T07:05:39;4.00;;;1.52;;
37787;SDS011;23627;53.302;-6.362;2023-07-31T07:08:05;5.13;;;1.55;;
37787;SDS011;23627;53.302;-6.362;2023-07-31T07:10:31;5.53;;;1.52;;
37787;SDS011;23627;53.302;-6.362;2023-07-31T07:12:57;4.05;;;1.70;;
37787;SDS011;23627;53.302;-6.362;2023-07-31T07:15:23;3.60;;;1.65;;
37787;SDS011;23627;53.302;-6.362;2023-07-31T07:17:49;5.63;;;1.85;;
37787;SDS011;23627;53.302;-6.362;2023-07-31T07:20:14;5.80;;;1.85;;
37787;SDS011;23627;53.302;-6.362;2023-07-31T07:22:40;4.78;;;1.42;;
37787;SDS011;23627;53.302;-6.362;2023-07-31T07:25:08;5.03;;;1.60;;
37787;SDS011;23627;53.302;-6.362;2023-07-31T07:27:34;2.47;;;1.63;;
37787;SDS011;23627;53.302;-6.362;2023-07-31T07:30:00;6.00;;;2.08;;
37787;SDS011;23627;53.302;-6.362;2023-07-31T07:32:26;4.25;;;1.63;;
37787;SDS011;23627;53.302;-6.362;2023-07-31T07:34:51;5.55;;;1.60;;
37787;SDS011;23627;53.302;-6.362;2023-07-31T07:37:17;4.78;;;1.65;;
37787;SDS011;23627;53.302;-6.362;2023-07-31T07:39:43;4.07;;;1.40;;
37787;SDS011;23627;53.302;-6.362;2023-07-31T07:42:11;5.22;;;1.77;;
37787;SDS011;23627;53.302;-6.362;2023-07-31T07:44:39;5.28;;;1.40;;
37787;SDS011;23627;53.302;-6.362;2023-07-31T07:47:05;2.33;;;1.20;;
37787;SDS011;23627;53.302;-6.362;2023-07-31T07:49:35;4.25;;;1.23;;
37787;SDS011;23627;53.302;-6.362;2023-07-31T07:52:01;4.13;;;1.40;;
37787;SDS011;23627;53.302;-6.362;2023-07-31T07:54:31;4.97;;;1.40;;
37787;SDS011;23627;53.302;-6.362;2023-07-31T07:57:03;3.70;;;1.30;;
37787;SDS011;23627;53.302;-6.362;2023-07-31T07:59:48;4.97;;;1.20;;
37787;SDS011;23627;53.302;-6.362;2023-07-31T08:02:21;4.03;;;1.13;;
37787;SDS011;23627;53.302;-6.362;2023-07-31T08:05:22;3.15;;;0.90;;
37787;SDS011;23627;53.302;-6.362;2023-07-31T08:07:50;3.53;;;1.20;;
37787;SDS011;23627;53.302;-6.362;2023-07-31T08:10:18;4.97;;;1.30;;
37787;SDS011;23627;53.302;-6.362;2023-07-31T08:12:43;3.70;;;1.00;;
37787;SDS011;23627;53.302;-6.362;2023-07-31T08:15:09;3.28;;;1.38;;
37787;SDS011;23627;53.302;-6.362;2023-07-31T08:17:37;3.88;;;0.98;;
37787;SDS011;23627;53.302;-6.362;2023-07-31T08:20:05;7.32;;;1.45;;
37787;SDS011;23627;53.302;-6.362;2023-07-31T08:22:35;3.15;;;1.10;;
37787;SDS011;23627;53.302;-6.362;2023-07-31T08:25:01;5.20;;;1.23;;
37787;SDS011;23627;53.302;-6.362;2023-07-31T08:27:30;3.45;;;1.27;;
37787;SDS011;23627;53.302;-6.362;2023-07-31T08:29:57;5.50;;;1.55;;
37787;SDS011;23627;53.302;-6.362;2023-07-31T08:32:23;4.35;;;1.42;;
37787;SDS011;23627;53.302;-6.362;2023-07-31T08:34:50;3.75;;;1.23;;
37787;SDS011;23627;53.302;-6.362;2023-07-31T08:37:17;6.38;;;1.50;;
37787;SDS011;23627;53.302;-6.362;2023-07-31T08:39:44;4.95;;;1.25;;
37787;SDS011;23627;53.302;-6.362;2023-07-31T08:42:11;7.20;;;1.30;;
37787;SDS011;23627;53.302;-6.362;2023-07-31T08:44:38;5.78;;;1.55;;
37787;SDS011;23627;53.302;-6.362;2023-07-31T08:47:13;6.80;;;1.50;;
37787;SDS011;23627;53.302;-6.362;2023-07-31T08:49:43;5.97;;;1.27;;
37787;SDS011;23627;53.302;-6.362;2023-07-31T08:52:12;6.95;;;1.65;;
37787;SDS011;23627;53.302;-6.362;2023-07-31T08:54:40;6.40;;;1.80;;
37787;SDS011;23627;53.302;-6.362;2023-07-31T08:57:06;5.53;;;1.30;;
37787;SDS011;23627;53.302;-6.362;2023-07-31T08:59:37;4.80;;;1.45;;
37787;SDS011;23627;53.302;-6.362;2023-07-31T09:02:07;5.47;;;1.35;;
37787;SDS011;23627;53.302;-6.362;2023-07-31T09:04:41;6.07;;;1.20;;
37787;SDS011;23627;53.302;-6.362;2023-07-31T09:10:31;5.50;;;1.25;;
37787;SDS011;23627;53.302;-6.362;2023-07-31T09:12:58;7.53;;;1.85;;
37787;SDS011;23627;53.302;-6.362;2023-07-31T09:15:27;5.72;;;1.38;;
37787;SDS011;23627;53.302;-6.362;2023-07-31T09:18:00;4.75;;;1.25;;
37787;SDS011;23627;53.302;-6.362;2023-07-31T09:20:27;6.88;;;1.70;;
37787;SDS011;23627;53.302;-6.362;2023-07-31T09:22:57;7.72;;;1.50;;
37787;SDS011;23627;53.302;-6.362;2023-07-31T09:25:39;6.75;;;2.05;;
37787;SDS011;23627;53.302;-6.362;2023-07-31T09:28:12;7.85;;;1.52;;
37787;SDS011;23627;53.302;-6.362;2023-07-31T09:30:45;6.68;;;1.33;;
37787;SDS011;23627;53.302;-6.362;2023-07-31T09:39:46;5.97;;;1.40;;
37787;SDS011;23627;53.302;-6.362;2023-07-31T09:42:12;4.07;;;1.40;;
37787;SDS011;23627;53.302;-6.362;2023-07-31T09:44:42;6.07;;;1.10;;
37787;SDS011;23627;53.302;-6.362;2023-07-31T09:47:26;4.43;;;1.60;;
37787;SDS011;23627;53.302;-6.362;2023-07-31T09:50:13;7.13;;;1.58;;
37787;SDS011;23627;53.302;-6.362;2023-07-31T09:52:41;4.65;;;1.50;;
37787;SDS011;23627;53.302;-6.362;2023-07-31T09:55:13;5.68;;;1.52;;
37787;SDS011;23627;53.302;-6.362;2023-07-31T10:06:34;6.50;;;1.60;;
37787;SDS011;23627;53.302;-6.362;2023-07-31T10:09:01;5.35;;;1.63;;
37787;SDS011;23627;53.302;-6.362;2023-07-31T10:12:07;4.13;;;1.33;;
37787;SDS011;23627;53.302;-6.362;2023-07-31T10:14:27;6.85;;;1.10;;
37787;SDS011;23627;53.302;-6.362;2023-07-31T10:16:54;5.60;;;1.45;;
37787;SDS011;23627;53.302;-6.362;2023-07-31T10:19:21;6.25;;;1.58;;
37787;SDS011;23627;53.302;-6.362;2023-07-31T10:21:48;7.15;;;1.70;;
37787;SDS011;23627;53.302;-6.362;2023-07-31T10:24:14;5.97;;;1.40;;
37787;SDS011;23627;53.302;-6.362;2023-07-31T10:26:41;6.15;;;1.40;;
37787;SDS011;23627;53.302;-6.362;2023-07-31T10:29:10;5.05;;;1.40;;
37787;SDS011;23627;53.302;-6.362;2023-07-31T10:31:36;6.95;;;1.40;;
37787;SDS011;23627;53.302;-6.362;2023-07-31T10:34:03;5.63;;;1.38;;
37787;SDS011;23627;53.302;-6.362;2023-07-31T10:36:29;4.18;;;1.48;;
37787;SDS011;23627;53.302;-6.362;2023-07-31T10:38:55;3.78;;;1.23;;
37787;SDS011;23627;53.302;-6.362;2023-07-31T10:41:30;4.53;;;1.30;;
37787;SDS011;23627;53.302;-6.362;2023-07-31T10:43:57;5.20;;;1.83;;
37787;SDS011;23627;53.302;-6.362;2023-07-31T10:46:24;6.03;;;1.30;;
37787;SDS011;23627;53.302;-6.362;2023-07-31T10:48:57;5.30;;;1.40;;
37787;SDS011;23627;53.302;-6.362;2023-07-31T10:51:36;4.43;;;1.30;;
37787;SDS011;23627;53.302;-6.362;2023-07-31T10:54:15;5.43;;;1.40;;
37787;SDS011;23627;53.302;-6.362;2023-07-31T10:56:46;4.05;;;1.25;;
37787;SDS011;23627;53.302;-6.362;2023-07-31T10:59:15;5.18;;;1.38;;
37787;SDS011;23627;53.302;-6.362;2023-07-31T11:01:56;3.90;;;1.20;;
37787;SDS011;23627;53.302;-6.362;2023-07-31T11:04:26;3.53;;;1.30;;
37787;SDS011;23627;53.302;-6.362;2023-07-31T11:06:58;6.10;;;1.30;;
37787;SDS011;23627;53.302;-6.362;2023-07-31T11:09:29;6.50;;;1.42;;
37787;SDS011;23627;53.302;-6.362;2023-07-31T11:11:56;5.03;;;1.33;;
37787;SDS011;23627;53.302;-6.362;2023-07-31T11:14:23;4.97;;;1.50;;
37787;SDS011;23627;53.302;-6.362;2023-07-31T11:20:11;6.03;;;1.30;;
37787;SDS011;23627;53.302;-6.362;2023-07-31T11:22:36;5.10;;;1.33;;
37787;SDS011;23627;53.302;-6.362;2023-07-31T11:25:03;5.50;;;1.60;;
37787;SDS011;23627;53.302;-6.362;2023-07-31T11:27:29;4.43;;;1.30;;
37787;SDS011;23627;53.302;-6.362;2023-07-31T11:30:03;5.80;;;1.40;;
37787;SDS011;23627;53.302;-6.362;2023-07-31T11:32:47;7.15;;;1.25;;
37787;SDS011;23627;53.302;-6.362;2023-07-31T11:35:16;5.68;;;1.20;;
37787;SDS011;23627;53.302;-6.362;2023-07-31T11:37:44;4.65;;;1.35;;
37787;SDS011;23627;53.302;-6.362;2023-07-31T11:40:10;4.72;;;1.25;;
37787;SDS011;23627;53.302;-6.362;2023-07-31T11:42:37;3.80;;;1.45;;
37787;SDS011;23627;53.302;-6.362;2023-07-31T11:45:04;5.28;;;1.60;;
37787;SDS011;23627;53.302;-6.362;2023-07-31T11:47:37;5.35;;;1.25;;
37787;SDS011;23627;53.302;-6.362;2023-07-31T11:50:04;4.43;;;1.30;;
37787;SDS011;23627;53.302;-6.362;2023-07-31T11:52:37;3.60;;;1.25;;
37787;SDS011;23627;53.302;-6.362;2023-07-31T11:55:07;4.85;;;1.35;;
37787;SDS011;23627;53.302;-6.362;2023-07-31T11:57:35;5.00;;;1.30;;
37787;SDS011;23627;53.302;-6.362;2023-07-31T12:00:03;4.72;;;1.50;;
37787;SDS011;23627;53.302;-6.362;2023-07-31T12:02:50;6.30;;;1.40;;
37787;SDS011;23627;53.302;-6.362;2023-07-31T12:05:17;4.75;;;1.50;;
37787;SDS011;23627;53.302;-6.362;2023-07-31T12:07:50;4.13;;;1.30;;
37787;SDS011;23627;53.302;-6.362;2023-07-31T12:10:30;4.72;;;1.20;;
37787;SDS011;23627;53.302;-6.362;2023-07-31T12:15:37;3.10;;;1.20;;
37787;SDS011;23627;53.302;-6.362;2023-07-31T12:18:18;4.60;;;1.30;;
37787;SDS011;23627;53.302;-6.362;2023-07-31T12:20:46;2.13;;;0.70;;
37787;SDS011;23627;53.302;-6.362;2023-07-31T12:23:30;3.63;;;1.20;;
37787;SDS011;23627;53.302;-6.362;2023-07-31T12:26:06;4.47;;;0.98;;
37787;SDS011;23627;53.302;-6.362;2023-07-31T12:28:54;4.65;;;1.10;;
37787;SDS011;23627;53.302;-6.362;2023-07-31T12:31:20;3.15;;;1.00;;
37787;SDS011;23627;53.302;-6.362;2023-07-31T12:33:48;4.40;;;1.10;;
37787;SDS011;23627;53.302;-6.362;2023-07-31T12:36:16;4.75;;;1.05;;
37787;SDS011;23627;53.302;-6.362;2023-07-31T12:38:43;7.07;;;1.42;;
37787;SDS011;23627;53.302;-6.362;2023-07-31T12:41:10;3.58;;;1.20;;
37787;SDS011;23627;53.302;-6.362;2023-07-31T12:43:39;3.17;;;1.52;;
37787;SDS011;23627;53.302;-6.362;2023-07-31T12:46:06;3.65;;;1.10;;
37787;SDS011;23627;53.302;-6.362;2023-07-31T12:48:35;3.28;;;1.30;;
37787;SDS011;23627;53.302;-6.362;2023-07-31T12:51:04;3.97;;;1.20;;
37787;SDS011;23627;53.302;-6.362;2023-07-31T12:53:31;3.58;;;1.20;;
37787;SDS011;23627;53.302;-6.362;2023-07-31T12:56:01;2.38;;;1.25;;
37787;SDS011;23627;53.302;-6.362;2023-07-31T12:58:27;3.15;;;1.40;;
37787;SDS011;23627;53.302;-6.362;2023-07-31T13:00:52;3.58;;;1.25;;
37787;SDS011;23627;53.302;-6.362;2023-07-31T13:03:18;3.78;;;1.52;;
37787;SDS011;23627;53.302;-6.362;2023-07-31T13:05:44;3.15;;;1.00;;
37787;SDS011;23627;53.302;-6.362;2023-07-31T13:08:10;4.65;;;1.42;;
37787;SDS011;23627;53.302;-6.362;2023-07-31T13:10:36;3.38;;;1.23;;
37787;SDS011;23627;53.302;-6.362;2023-07-31T13:13:02;3.80;;;1.10;;
37787;SDS011;23627;53.302;-6.362;2023-07-31T13:15:28;3.92;;;1.10;;
37787;SDS011;23627;53.302;-6.362;2023-07-31T13:17:54;2.15;;;1.02;;
37787;SDS011;23627;53.302;-6.362;2023-07-31T13:20:20;3.92;;;1.00;;
37787;SDS011;23627;53.302;-6.362;2023-07-31T13:22:46;3.72;;;1.17;;
37787;SDS011;23627;53.302;-6.362;2023-07-31T13:25:11;4.72;;;1.35;;
37787;SDS011;23627;53.302;-6.362;2023-07-31T13:27:37;3.70;;;1.10;;
37787;SDS011;23627;53.302;-6.362;2023-07-31T13:30:03;2.78;;;0.98;;
37787;SDS011;23627;53.302;-6.362;2023-07-31T13:32:29;3.58;;;1.15;;
37787;SDS011;23627;53.302;-6.362;2023-07-31T13:34:55;3.60;;;1.20;;
37787;SDS011;23627;53.302;-6.362;2023-07-31T13:37:21;5.35;;;1.67;;
37787;SDS011;23627;53.302;-6.362;2023-07-31T13:39:47;4.15;;;1.25;;
37787;SDS011;23627;53.302;-6.362;2023-07-31T13:42:13;3.55;;;1.20;;
37787;SDS011;23627;53.302;-6.362;2023-07-31T13:44:39;4.35;;;1.20;;
37787;SDS011;23627;53.302;-6.362;2023-07-31T13:47:05;5.35;;;1.42;;
37787;SDS011;23627;53.302;-6.362;2023-07-31T13:49:31;5.57;;;1.40;;
37787;SDS011;23627;53.302;-6.362;2023-07-31T13:51:58;4.35;;;1.50;;
37787;SDS011;23627;53.302;-6.362;2023-07-31T13:54:23;5.50;;;1.70;;
37787;SDS011;23627;53.302;-6.362;2023-07-31T13:56:50;4.22;;;1.80;;
37787;SDS011;23627;53.302;-6.362;2023-07-31T13:59:17;3.95;;;1.17;;
37787;SDS011;23627;53.302;-6.362;2023-07-31T14:01:43;4.45;;;1.50;;
37787;SDS011;23627;53.302;-6.362;2023-07-31T14:04:09;4.10;;;1.63;;
37787;SDS011;23627;53.302;-6.362;2023-07-31T14:06:35;5.55;;;1.45;;
37787;SDS011;23627;53.302;-6.362;2023-07-31T14:09:01;3.17;;;1.23;;
37787;SDS011;23627;53.302;-6.362;2023-07-31T14:11:27;4.70;;;1.20;;
37787;SDS011;23627;53.302;-6.362;2023-07-31T14:13:53;2.83;;;1.10;;
37787;SDS011;23627;53.302;-6.362;2023-07-31T14:16:21;4.28;;;1.10;;
37787;SDS011;23627;53.302;-6.362;2023-07-31T14:18:47;4.68;;;1.10;;
37787;SDS011;23627;53.302;-6.362;2023-07-31T14:21:13;5.00;;;0.93;;
37787;SDS011;23627;53.302;-6.362;2023-07-31T14:23:39;5.20;;;1.52;;
37787;SDS011;23627;53.302;-6.362;2023-07-31T14:26:05;5.78;;;1.00;;
37787;SDS011;23627;53.302;-6.362;2023-07-31T14:28:31;3.15;;;0.90;;
37787;SDS011;23627;53.302;-6.362;2023-07-31T14:30:57;3.03;;;0.90;;
37787;SDS011;23627;53.302;-6.362;2023-07-31T14:33:23;3.25;;;0.80;;
37787;SDS011;23627;53.302;-6.362;2023-07-31T14:35:49;2.83;;;1.02;;
37787;SDS011;23627;53.302;-6.362;2023-07-31T14:38:15;3.63;;;1.00;;
37787;SDS011;23627;53.302;-6.362;2023-07-31T14:40:41;3.88;;;0.90;;
37787;SDS011;23627;53.302;-6.362;2023-07-31T14:43:07;3.33;;;1.13;;
37787;SDS011;23627;53.302;-6.362;2023-07-31T14:45:33;4.82;;;1.35;;
37787;SDS011;23627;53.302;-6.362;2023-07-31T14:47:59;3.40;;;1.13;;
37787;SDS011;23627;53.302;-6.362;2023-07-31T14:50:25;3.40;;;1.10;;
37787;SDS011;23627;53.302;-6.362;2023-07-31T14:52:51;3.15;;;1.20;;
37787;SDS011;23627;53.302;-6.362;2023-07-31T14:55:17;4.30;;;1.25;;
37787;SDS011;23627;53.302;-6.362;2023-07-31T14:57:43;3.90;;;1.30;;
37787;SDS011;23627;53.302;-6.362;2023-07-31T15:00:09;5.60;;;1.50;;
37787;SDS011;23627;53.302;-6.362;2023-07-31T15:02:39;3.63;;;1.50;;
37787;SDS011;23627;53.302;-6.362;2023-07-31T15:05:07;5.13;;;1.35;;
37787;SDS011;23627;53.302;-6.362;2023-07-31T15:07:33;4.07;;;1.10;;
37787;SDS011;23627;53.302;-6.362;2023-07-31T15:10:00;4.32;;;0.95;;
37787;SDS011;23627;53.302;-6.362;2023-07-31T15:12:27;3.97;;;1.02;;
37787;SDS011;23627;53.302;-6.362;2023-07-31T15:14:53;3.80;;;1.30;;
37787;SDS011;23627;53.302;-6.362;2023-07-31T15:17:23;3.28;;;1.23;;